createdAt,value
2022-10-13T00:03:31.029Z,9.76
2022-10-13T00:08:32.923Z,9.79
2022-10-13T00:13:34.344Z,9.79
2022-10-13T00:18:36.428Z,9.81
2022-10-13T00:23:39.097Z,9.83
2022-10-13T00:28:40.876Z,9.85
2022-10-13T00:33:45.110Z,9.84
2022-10-13T00:38:46.673Z,9.85
2022-10-13T00:43:56.532Z,9.87
2022-10-13T00:49:03.372Z,9.88
2022-10-13T00:54:07.166Z,9.86
2022-10-13T00:59:15.060Z,9.88
2022-10-13T01:04:18.664Z,9.88
2022-10-13T01:09:20.270Z,9.87
2022-10-13T01:14:38.759Z,9.91
2022-10-13T01:20:25.537Z,9.91
2022-10-13T01:25:26.968Z,9.95
2022-10-13T01:30:31.851Z,9.94
2022-10-13T01:35:41.355Z,9.96
2022-10-13T01:40:45.958Z,9.97
2022-10-13T01:45:54.734Z,9.96
2022-10-13T01:51:00.299Z,9.98
2022-10-13T01:56:01.726Z,9.96
2022-10-13T02:01:27.598Z,9.96
2022-10-13T02:06:46.894Z,9.95
2022-10-13T02:11:56.816Z,9.94
2022-10-13T02:17:03.016Z,9.93
2022-10-13T02:22:06.349Z,9.93
2022-10-13T02:27:08.557Z,9.96
2022-10-13T02:32:11.375Z,9.92
2022-10-13T02:37:12.876Z,9.94
2022-10-13T02:42:14.605Z,9.98
2022-10-13T02:47:16.170Z,9.99
2022-10-13T02:52:17.894Z,10.00
2022-10-13T02:57:21.793Z,-143.47
2022-10-13T03:02:24.027Z,-143.47
2022-10-13T03:07:26.029Z,-143.47
2022-10-13T03:12:27.711Z,-143.47
2022-10-13T03:17:32.105Z,-143.47
2022-10-13T03:22:33.690Z,-143.47
2022-10-13T03:27:43.801Z,-143.47
2022-10-13T03:32:46.618Z,-143.47
2022-10-13T03:37:48.291Z,-143.47
2022-10-13T03:42:49.811Z,-143.47
2022-10-13T03:47:51.348Z,-143.47
2022-10-13T03:52:52.823Z,-143.47
2022-10-13T03:57:54.322Z,-143.47
2022-10-13T04:02:56.136Z,-143.47
2022-10-13T04:07:57.797Z,-143.47
2022-10-13T04:12:59.737Z,-143.47
2022-10-13T04:18:01.306Z,-143.47
2022-10-13T04:23:03.113Z,-143.47
2022-10-13T04:28:06.056Z,-143.47
2022-10-13T04:33:07.680Z,-143.47
2022-10-13T04:38:09.416Z,-143.47
2022-10-13T04:43:10.994Z,-143.47
2022-10-13T04:48:12.606Z,-143.47
2022-10-13T04:53:18.944Z,-143.47
2022-10-13T04:58:20.821Z,-143.47
2022-10-13T05:03:22.804Z,-143.47
2022-10-13T05:08:26.979Z,-143.47
2022-10-13T05:13:29.601Z,-143.47
2022-10-13T05:18:31.194Z,-143.47
2022-10-13T05:23:32.721Z,-143.47
2022-10-13T05:28:34.578Z,-143.47
2022-10-13T05:33:36.765Z,-143.47
2022-10-13T05:44:29.758Z,-143.47
2022-10-13T05:49:31.252Z,-143.47
2022-10-13T05:54:43.451Z,-143.47
2022-10-13T06:00:01.100Z,-143.47
2022-10-13T06:33:00.660Z,-143.47
2022-10-13T06:38:06.979Z,-143.47
2022-10-13T06:43:14.429Z,-143.47
2022-10-13T06:49:28.448Z,-143.47
2022-10-13T06:54:34.810Z,-143.47
2022-10-13T06:59:38.535Z,-143.47
2022-10-13T07:04:40.414Z,-143.47
2022-10-13T07:09:42.187Z,-143.47
2022-10-13T07:14:43.974Z,-143.47
2022-10-13T07:19:48.884Z,-143.47
2022-10-13T07:24:50.318Z,-143.47
2022-10-13T07:29:56.943Z,-143.47
2022-10-13T07:34:58.669Z,-143.47
2022-10-13T07:40:14.100Z,-143.47
2022-10-13T07:45:15.824Z,-143.47
2022-10-13T07:50:20.677Z,-143.47
2022-10-13T07:55:22.724Z,-143.47
2022-10-13T08:00:24.264Z,-143.47
2022-10-13T08:05:26.295Z,-143.47
2022-10-13T08:10:32.394Z,-143.47
2022-10-13T08:15:33.873Z,-143.47
2022-10-13T08:20:41.258Z,-143.47
2022-10-13T08:25:44.190Z,-143.47
2022-10-13T08:30:46.031Z,-143.47
2022-10-13T08:35:47.581Z,-143.47
2022-10-13T08:40:50.783Z,-143.47
2022-10-13T08:45:58.146Z,-143.47
2022-10-13T08:51:02.736Z,-143.47
2022-10-13T08:56:17.491Z,-143.47
2022-10-13T09:01:25.405Z,-143.47
2022-10-13T09:06:50.920Z,-143.47
2022-10-13T09:11:53.483Z,-143.47
2022-10-13T09:16:57.115Z,18.85
2022-10-13T09:22:33.719Z,-143.47
2022-10-13T09:27:47.355Z,17.44
2022-10-13T09:32:48.879Z,-143.47
2022-10-13T09:38:14.752Z,18.32
2022-10-13T09:43:41.057Z,18.79
2022-10-13T09:48:42.540Z,-143.47
2022-10-13T09:53:47.270Z,19.09
2022-10-13T09:59:27.558Z,-143.47
2022-10-13T10:04:40.493Z,19.99
2022-10-13T10:09:47.633Z,-143.47
2022-10-13T10:14:49.593Z,24.08
2022-10-13T10:20:06.249Z,-143.47
2022-10-13T10:25:22.728Z,22.02
2022-10-13T10:30:24.467Z,-143.47
2022-10-13T10:35:56.639Z,21.42
2022-10-13T10:41:19.950Z,-143.47
2022-10-13T10:46:29.255Z,20.83
2022-10-13T10:51:35.479Z,-143.47
2022-10-13T10:56:48.603Z,20.58
2022-10-13T11:02:02.033Z,20.65
2022-10-13T11:07:04.349Z,-143.47
2022-10-13T11:12:23.206Z,20.65
2022-10-13T11:17:36.866Z,-143.47
2022-10-13T11:22:38.256Z,19.70
2022-10-13T11:27:41.735Z,-143.47
2022-10-13T11:32:44.089Z,18.99
2022-10-13T11:38:06.916Z,-143.47
2022-10-13T11:43:36.936Z,18.96
2022-10-13T11:49:15.709Z,-143.47
2022-10-13T11:54:23.397Z,18.85
2022-10-13T11:59:35.514Z,-143.47
2022-10-13T12:04:40.567Z,18.30
2022-10-13T12:09:52.981Z,18.26
2022-10-13T12:51:28.195Z,19.13
2022-10-13T12:56:33.101Z,19.10
2022-10-13T13:01:35.523Z,18.75
2022-10-13T13:06:43.410Z,18.69
2022-10-13T13:11:45.838Z,-143.47
2022-10-13T13:22:50.643Z,18.32
2022-10-13T13:28:55.731Z,18.43
2022-10-13T13:34:05.813Z,18.48
2022-10-13T13:39:15.033Z,18.35
2022-10-13T13:44:16.733Z,18.21
2022-10-13T14:00:23.295Z,17.92
2022-10-13T14:05:41.355Z,17.91
2022-10-13T14:10:43.226Z,17.83
2022-10-13T14:15:50.537Z,17.73
2022-10-13T14:21:26.959Z,17.73
2022-10-13T14:26:41.937Z,17.49
2022-10-13T14:31:52.113Z,17.43
2022-10-13T14:42:20.779Z,17.20
2022-10-13T14:47:23.840Z,17.15
2022-10-13T14:57:49.772Z,17.01
2022-10-13T15:03:02.522Z,16.99
2022-10-13T15:08:06.991Z,17.04
2022-10-13T15:13:08.633Z,17.18
2022-10-13T15:19:03.642Z,17.25
2022-10-13T15:23:47.812Z,17.26
2022-10-13T15:28:52.245Z,17.13
2022-10-13T15:33:54.057Z,16.94
2022-10-13T15:38:58.190Z,16.72
2022-10-13T15:44:01.629Z,16.50
2022-10-13T15:49:03.301Z,16.36
2022-10-13T15:54:07.105Z,-143.47
2022-10-13T15:59:08.629Z,16.11
2022-10-13T16:04:10.136Z,15.98
2022-10-13T16:09:15.200Z,15.85
2022-10-13T16:14:16.763Z,15.71
2022-10-13T16:19:18.286Z,15.64
2022-10-13T16:24:28.632Z,15.54
2022-10-13T16:29:30.218Z,15.46
2022-10-13T16:34:36.641Z,15.40
2022-10-13T16:39:46.504Z,15.29
2022-10-13T16:45:06.569Z,15.88
2022-10-13T16:50:13.532Z,15.22
2022-10-13T17:01:33.086Z,15.10
2022-10-13T17:12:02.581Z,15.00
2022-10-13T17:17:27.831Z,14.98
2022-10-13T17:22:35.778Z,14.94
2022-10-13T17:27:37.961Z,14.91
2022-10-13T17:32:39.608Z,14.86
2022-10-13T17:37:41.207Z,14.83
2022-10-13T17:42:51.581Z,14.83
2022-10-13T17:47:53.151Z,14.74
2022-10-13T17:52:56.997Z,14.74
2022-10-13T17:58:30.088Z,14.52
2022-10-13T18:03:33.953Z,14.49
2022-10-13T18:08:47.779Z,14.38
2022-10-13T18:19:14.891Z,14.18
2022-10-13T18:24:20.001Z,14.24
2022-10-13T18:35:45.121Z,14.26
2022-10-13T18:53:07.753Z,14.03
2022-10-13T18:58:09.381Z,13.97
2022-10-13T19:03:14.539Z,13.89
2022-10-13T19:08:16.034Z,-143.47
2022-10-13T19:13:17.907Z,-143.47
2022-10-13T19:18:19.374Z,-143.47
2022-10-13T19:29:02.141Z,-143.47
2022-10-13T19:34:03.830Z,-143.47
2022-10-13T19:39:15.939Z,-143.47
2022-10-13T19:44:19.385Z,-143.47
2022-10-13T19:54:53.381Z,-143.47
2022-10-13T20:00:04.586Z,-143.47
2022-10-13T20:05:20.915Z,-143.47
2022-10-13T20:10:26.100Z,-143.47
2022-10-13T20:15:27.592Z,-143.47
2022-10-13T20:20:29.055Z,-143.47
2022-10-13T20:25:30.526Z,-143.47
2022-10-13T20:30:32.444Z,-143.47
2022-10-13T20:35:45.670Z,-143.47
2022-10-13T20:41:08.766Z,-143.47
2022-10-13T20:46:10.445Z,-143.47
2022-10-13T20:51:14.207Z,-143.47
2022-10-13T20:56:18.615Z,-143.47
2022-10-13T21:01:22.474Z,-143.47
2022-10-13T21:06:27.444Z,-143.47
2022-10-13T21:11:29.170Z,-143.47
2022-10-13T21:16:31.085Z,-143.47
2022-10-13T21:32:46.234Z,-143.47
2022-10-13T21:37:48.085Z,-143.47
2022-10-13T21:42:49.493Z,-143.47
2022-10-13T21:47:51.013Z,-143.47
2022-10-13T21:52:52.588Z,-143.47
2022-10-13T21:57:54.042Z,-143.47
2022-10-13T22:02:55.487Z,-143.47
2022-10-13T22:07:57.130Z,-143.47
2022-10-13T22:12:58.852Z,-143.47
2022-10-13T22:18:00.576Z,-143.47
2022-10-13T22:23:02.082Z,-143.47
2022-10-13T22:28:03.495Z,-143.47
2022-10-13T22:33:05.097Z,-143.47
2022-10-13T22:38:06.873Z,-143.47
2022-10-13T22:49:07.666Z,-143.47
2022-10-13T22:54:09.551Z,-143.47
2022-10-13T22:59:15.681Z,-143.47
2022-10-13T23:04:19.269Z,-143.47
2022-10-13T23:09:20.951Z,-143.47
2022-10-13T23:14:27.855Z,-143.47
2022-10-13T23:19:29.558Z,-143.47
2022-10-13T23:24:31.314Z,-143.47
2022-10-13T23:29:32.724Z,-143.47
2022-10-13T23:34:34.938Z,-143.47
2022-10-13T23:39:37.316Z,-143.47
2022-10-13T23:44:39.798Z,-143.47
2022-10-13T23:49:41.383Z,-143.47
2022-10-13T23:54:58.392Z,-143.47
